Time;durP1;ratioP1;P1;durP2;ratioP2;P2;SDS_P1;SDS_P2;PMS_P1;PMS_P2;Temp;Humidity;BMP_temperature;BMP_pressure;BME280_temperature;BME280_humidity;BME280_pressure;Samples;Min_cycle;Max_cycle;Signal;HPM_P1;HPM_P2
2021/08/28 00:01:40;;;;;;;8.18;5.38;;;;;;;11.22;93.89;95456.16;5024561;28;20054;-82
2021/08/28 00:04:05;;;;;;;10.25;5.25;;;;;;;11.26;93.73;95465.09;5028524;28;20052;-81
2021/08/28 00:06:31;;;;;;;10.68;5.88;;;;;;;11.33;92.26;95456.09;5022401;28;20106;-81
2021/08/28 00:08:57;;;;;;;9.70;5.50;;;;;;;11.40;91.90;95462.59;5005300;28;20589;-81
2021/08/28 00:11:23;;;;;;;8.93;5.22;;;;;;;11.42;91.01;95451.78;5004484;28;20049;-82
2021/08/28 00:13:48;;;;;;;12.75;6.00;;;;;;;11.51;91.17;95462.56;5030768;28;20041;-79
2021/08/28 00:16:14;;;;;;;14.25;5.85;;;;;;;11.55;90.62;95459.06;5030107;28;20478;-79
2021/08/28 00:18:39;;;;;;;11.48;5.65;;;;;;;11.54;91.13;95454.88;5007615;28;20052;-78
2021/08/28 00:21:06;;;;;;;9.27;5.40;;;;;;;11.58;90.50;95450.63;5030912;28;20550;-81
2021/08/28 00:23:32;;;;;;;7.80;5.47;;;;;;;11.66;90.72;95449.22;5023817;28;20841;-80
2021/08/28 00:25:57;;;;;;;9.63;5.80;;;;;;;11.66;90.17;95437.91;5028660;28;20087;-81
2021/08/28 00:28:22;;;;;;;9.73;5.82;;;;;;;11.63;91.03;95449.00;5020149;28;20038;-81
2021/08/28 00:30:48;;;;;;;11.38;5.63;;;;;;;11.64;90.54;95451.34;5033473;28;20042;-82
2021/08/28 00:33:16;;;;;;;9.60;5.85;;;;;;;11.59;91.16;95449.56;5026861;28;20454;-82
2021/08/28 00:35:42;;;;;;;10.93;5.95;;;;;;;11.44;91.20;95447.03;5027535;28;20052;-81
2021/08/28 00:38:08;;;;;;;14.10;5.57;;;;;;;11.60;90.60;95445.84;5030117;28;20557;-81
2021/08/28 00:40:38;;;;;;;8.55;5.13;;;;;;;11.64;90.46;95434.75;5008283;28;20091;-81
2021/08/28 00:43:04;;;;;;;11.88;5.25;;;;;;;11.58;90.57;95441.94;5024984;28;20126;-81
2021/08/28 00:45:36;;;;;;;9.68;5.32;;;;;;;11.44;91.01;95432.00;5009289;28;20049;-81
2021/08/28 00:48:07;;;;;;;11.60;5.15;;;;;;;11.40;91.95;95435.47;5024604;28;20120;-82
2021/08/28 00:50:37;;;;;;;10.52;5.40;;;;;;;11.48;93.33;95434.91;5023902;28;20049;-81
2021/08/28 00:53:07;;;;;;;15.88;6.20;;;;;;;11.30;92.87;95440.84;5023537;28;20041;-82
2021/08/28 00:55:40;;;;;;;9.00;5.70;;;;;;;11.36;93.86;95426.56;5028484;28;20037;-81
2021/08/28 00:58:07;;;;;;;9.85;5.47;;;;;;;11.31;94.00;95432.66;5011989;28;20045;-81
2021/08/28 01:00:41;;;;;;;11.68;5.40;;;;;;;11.21;93.59;95433.50;5007603;28;20488;-81
2021/08/28 01:03:08;;;;;;;9.23;5.38;;;;;;;11.16;95.10;95424.84;5004408;28;20046;-81
2021/08/28 01:05:43;;;;;;;12.80;5.65;;;;;;;11.33;95.32;95441.06;5017813;28;20517;-81
2021/08/28 01:08:25;;;;;;;9.90;5.70;;;;;;;11.22;95.25;95434.28;5003465;28;20034;-81
2021/08/28 01:11:03;;;;;;;11.00;5.50;;;;;;;11.22;95.38;95439.56;5018317;28;20045;-81
2021/08/28 01:13:32;;;;;;;8.20;5.38;;;;;;;11.25;95.88;95433.75;5012101;28;20414;-81
2021/08/28 01:16:00;;;;;;;12.38;5.45;;;;;;;11.22;96.66;95434.28;5027242;28;20117;-80
2021/08/28 01:18:27;;;;;;;8.18;5.22;;;;;;;11.17;95.32;95432.47;5013227;28;20037;-81
2021/08/28 01:21:15;;;;;;;10.38;5.40;;;;;;;11.35;95.39;95427.59;5025237;28;20046;-81
2021/08/28 01:23:43;;;;;;;7.72;5.10;;;;;;;11.34;94.84;95434.72;5023994;28;20052;-82
2021/08/28 01:26:15;;;;;;;11.35;5.30;;;;;;;11.42;94.86;95433.34;5025454;28;20037;-82
2021/08/28 01:28:56;;;;;;;8.95;4.93;;;;;;;11.36;94.66;95434.44;5030837;28;20100;-82
2021/08/28 01:31:23;;;;;;;8.60;4.88;;;;;;;11.35;94.88;95438.13;5014806;28;20046;-81
2021/08/28 01:33:50;;;;;;;13.13;5.32;;;;;;;11.45;94.78;95438.09;5017346;28;20038;-81
2021/08/28 01:36:17;;;;;;;10.90;5.75;;;;;;;11.33;95.88;95446.31;5030841;28;20041;-81
2021/08/28 01:38:44;;;;;;;7.75;5.45;;;;;;;11.46;93.42;95439.63;5030299;28;20045;-81
2021/08/28 01:41:10;;;;;;;8.77;5.22;;;;;;;11.37;94.17;95441.31;5014028;28;20037;-81
2021/08/28 01:43:37;;;;;;;8.80;5.32;;;;;;;11.35;95.12;95438.13;5027328;28;20403;-81
2021/08/28 01:46:03;;;;;;;11.82;5.47;;;;;;;11.23;94.62;95449.84;5014522;28;20053;-82
2021/08/28 01:48:29;;;;;;;10.18;5.47;;;;;;;11.25;96.40;95442.44;5032151;28;20033;-81
2021/08/28 01:50:55;;;;;;;9.18;5.43;;;;;;;11.17;95.35;95448.28;5030798;28;20507;-81
2021/08/28 01:53:21;;;;;;;11.95;6.72;;;;;;;11.19;97.11;95451.44;5009497;28;20084;-81
2021/08/28 01:55:46;;;;;;;15.45;5.93;;;;;;;11.11;97.28;95446.75;5014199;28;20411;-81
2021/08/28 01:58:12;;;;;;;12.00;5.60;;;;;;;11.04;98.02;95449.69;5032570;28;20465;-80
2021/08/28 02:00:38;;;;;;;10.20;5.93;;;;;;;11.04;97.83;95443.63;5005007;28;20042;-81
2021/08/28 02:03:03;;;;;;;12.82;5.95;;;;;;;11.17;97.61;95437.75;5018201;28;20037;-81
2021/08/28 02:05:32;;;;;;;10.77;5.60;;;;;;;11.19;98.11;95446.19;5014305;28;20038;-81
2021/08/28 02:08:00;;;;;;;10.50;5.72;;;;;;;11.20;99.29;95442.47;5027212;28;20122;-80
2021/08/28 02:10:47;;;;;;;12.75;6.00;;;;;;;11.08;100.00;95449.94;5030434;28;20056;-80
2021/08/28 02:13:30;;;;;;;11.18;5.97;;;;;;;10.98;100.00;95444.75;5037272;28;20193;-81
2021/08/28 02:16:02;;;;;;;12.80;6.15;;;;;;;11.06;99.48;95441.50;5032766;28;20041;-81
2021/08/28 02:18:39;;;;;;;14.05;5.93;;;;;;;11.00;100.00;95438.13;5031009;28;20510;-80
2021/08/28 02:21:06;;;;;;;12.45;6.88;;;;;;;11.12;100.00;95443.06;5032637;28;20065;-80
2021/08/28 02:23:38;;;;;;;14.13;6.75;;;;;;;11.29;100.00;95441.88;5029472;28;20057;-81
2021/08/28 02:26:19;;;;;;;14.02;6.07;;;;;;;11.29;100.00;95444.53;5032953;28;20502;-81
2021/08/28 02:29:02;;;;;;;13.95;6.85;;;;;;;11.14;100.00;95433.03;5026438;28;20041;-79
2021/08/28 02:31:40;;;;;;;12.90;7.10;;;;;;;11.18;100.00;95428.78;5032393;28;20045;-79
2021/08/28 02:34:08;;;;;;;12.18;6.97;;;;;;;11.07;100.00;95427.28;5032777;28;20174;-79
2021/08/28 02:36:34;;;;;;;13.57;7.13;;;;;;;11.06;100.00;95430.97;5033940;28;20038;-80
2021/08/28 02:39:01;;;;;;;13.80;7.10;;;;;;;11.05;100.00;95429.41;5031363;28;20049;-80
2021/08/28 02:41:28;;;;;;;12.52;7.00;;;;;;;10.98;100.00;95428.94;5015633;28;20050;-80
2021/08/28 02:43:56;;;;;;;13.88;7.57;;;;;;;11.06;100.00;95420.44;5027767;28;20387;-79
2021/08/28 02:46:26;;;;;;;13.73;7.82;;;;;;;10.94;100.00;95420.78;5015353;28;20099;-80
2021/08/28 02:48:53;;;;;;;16.25;7.60;;;;;;;10.98;100.00;95426.31;5028081;28;20522;-80
2021/08/28 02:51:20;;;;;;;15.05;7.88;;;;;;;10.89;100.00;95420.84;5033191;28;20041;-79
2021/08/28 02:53:47;;;;;;;13.30;7.30;;;;;;;11.02;100.00;95427.31;5009785;28;20568;-79
2021/08/28 02:56:14;;;;;;;13.23;7.40;;;;;;;10.86;100.00;95416.91;5033744;28;20061;-79
2021/08/28 02:58:41;;;;;;;14.07;7.28;;;;;;;10.94;100.00;95427.91;5032783;28;20403;-79
2021/08/28 03:01:08;;;;;;;11.88;6.93;;;;;;;10.83;100.00;95427.97;5005173;28;20468;-79
2021/08/28 03:03:35;;;;;;;15.85;7.05;;;;;;;10.89;100.00;95421.63;5032446;28;20045;-79
2021/08/28 03:06:01;;;;;;;11.88;6.78;;;;;;;10.92;100.00;95426.31;5032770;28;20558;-80
2021/08/28 03:08:28;;;;;;;11.68;6.65;;;;;;;10.81;100.00;95424.81;5031636;28;20048;-80
2021/08/28 03:10:55;;;;;;;12.57;6.15;;;;;;;10.85;100.00;95419.81;4999550;28;20100;-81
2021/08/28 03:13:21;;;;;;;11.32;6.13;;;;;;;10.73;100.00;95417.47;5003971;28;20099;-80
2021/08/28 03:15:49;;;;;;;10.35;6.20;;;;;;;10.83;100.00;95430.59;5032871;28;20335;-80
2021/08/28 03:18:18;;;;;;;9.77;5.85;;;;;;;10.80;100.00;95428.50;5008722;28;20046;-79
2021/08/28 03:20:47;;;;;;;11.27;6.13;;;;;;;10.72;100.00;95415.94;5006967;28;20095;-80
2021/08/28 03:23:15;;;;;;;11.55;5.63;;;;;;;10.67;100.00;95413.31;5013615;28;20638;-79
2021/08/28 03:25:42;;;;;;;12.13;6.15;;;;;;;10.61;100.00;95414.41;5032259;28;20049;-79
2021/08/28 03:28:10;;;;;;;12.43;5.90;;;;;;;10.67;100.00;95410.69;5031742;28;20049;-80
2021/08/28 03:30:36;;;;;;;14.15;6.53;;;;;;;10.64;100.00;95409.38;5031502;28;20053;-80
2021/08/28 03:33:02;;;;;;;10.18;5.95;;;;;;;10.65;100.00;95404.91;5017074;28;20052;-79
2021/08/28 03:35:29;;;;;;;12.35;6.65;;;;;;;10.65;100.00;95407.56;5014820;28;20042;-80
2021/08/28 03:37:56;;;;;;;12.02;6.82;;;;;;;10.62;100.00;95400.19;5032127;28;20107;-79
2021/08/28 03:40:22;;;;;;;16.45;6.65;;;;;;;10.66;100.00;95406.47;5030043;28;20050;-79
2021/08/28 03:42:47;;;;;;;12.48;7.13;;;;;;;10.64;100.00;95406.75;4997191;28;20052;-79
2021/08/28 03:45:13;;;;;;;13.45;7.25;;;;;;;10.64;100.00;95392.81;5033058;28;20046;-79
2021/08/28 03:47:43;;;;;;;13.27;7.15;;;;;;;10.64;100.00;95408.59;5032200;28;20052;-79
2021/08/28 03:50:10;;;;;;;11.88;6.68;;;;;;;10.68;100.00;95405.16;5014960;28;20042;-79
2021/08/28 03:52:36;;;;;;;19.92;7.43;;;;;;;10.70;100.00;95396.97;5010682;28;20068;-80
2021/08/28 03:55:02;;;;;;;12.05;6.72;;;;;;;10.68;100.00;95409.63;5015041;28;20041;-78
2021/08/28 03:57:27;;;;;;;14.60;7.78;;;;;;;10.62;100.00;95410.72;5033484;28;20045;-78
2021/08/28 03:59:53;;;;;;;11.48;6.55;;;;;;;10.72;100.00;95400.13;5013476;28;20041;-78
2021/08/28 04:02:18;;;;;;;12.07;6.80;;;;;;;10.75;100.00;95404.84;5017999;28;20049;-79
2021/08/28 04:04:44;;;;;;;12.23;6.57;;;;;;;10.68;100.00;95414.91;5031723;28;20049;-79
2021/08/28 04:07:10;;;;;;;14.57;6.93;;;;;;;10.64;100.00;95419.13;5014087;28;20116;-80
2021/08/28 04:09:35;;;;;;;12.77;6.60;;;;;;;10.66;100.00;95406.47;5029701;28;20049;-79
2021/08/28 04:12:01;;;;;;;12.70;6.60;;;;;;;10.65;100.00;95410.19;5031316;28;20037;-79
2021/08/28 04:14:26;;;;;;;12.77;7.30;;;;;;;10.64;100.00;95412.00;5029888;28;20081;-80
2021/08/28 04:16:52;;;;;;;13.95;7.30;;;;;;;10.47;100.00;95409.72;5030279;28;20103;-79
2021/08/28 04:19:17;;;;;;;13.15;7.13;;;;;;;10.47;100.00;95409.72;5012337;28;20041;-80
2021/08/28 04:21:42;;;;;;;13.13;7.57;;;;;;;10.56;100.00;95418.63;5011252;28;20411;-80
2021/08/28 04:24:08;;;;;;;15.15;6.60;;;;;;;10.73;100.00;95407.75;5018504;28;20038;-81
2021/08/28 04:26:34;;;;;;;20.10;7.53;;;;;;;10.76;100.00;95424.88;5029783;28;20050;-81
2021/08/28 04:28:59;;;;;;;15.00;6.20;;;;;;;10.67;100.00;95423.84;5012669;28;20041;-81
2021/08/28 04:31:25;;;;;;;13.45;7.25;;;;;;;10.52;100.00;95411.56;5025519;28;20053;-81
2021/08/28 04:33:51;;;;;;;11.50;6.45;;;;;;;10.64;100.00;95417.28;5020482;28;20045;-81
2021/08/28 04:36:16;;;;;;;15.20;7.75;;;;;;;10.47;100.00;95414.22;5030031;28;20045;-80
2021/08/28 04:38:42;;;;;;;15.65;7.80;;;;;;;10.42;100.00;95407.13;5010073;28;20044;-81
2021/08/28 04:41:08;;;;;;;15.88;7.75;;;;;;;10.42;100.00;95407.13;5016565;28;20111;-81
2021/08/28 04:43:33;;;;;;;19.98;8.32;;;;;;;10.46;100.00;95413.44;5030360;28;20106;-82
2021/08/28 04:45:59;;;;;;;14.85;7.32;;;;;;;10.60;100.00;95423.34;5011120;28;20045;-81
2021/08/28 04:48:24;;;;;;;12.60;6.97;;;;;;;10.53;100.00;95419.19;5012961;28;20042;-81
2021/08/28 04:50:49;;;;;;;13.23;7.97;;;;;;;10.71;100.00;95419.63;5014596;28;20048;-81
2021/08/28 04:53:15;;;;;;;13.48;6.97;;;;;;;10.66;100.00;95411.72;4998686;28;20104;-80
2021/08/28 04:55:41;;;;;;;16.90;7.85;;;;;;;10.65;100.00;95415.44;4993137;28;20045;-80
2021/08/28 04:58:06;;;;;;;15.82;7.88;;;;;;;10.64;100.00;95419.13;5018074;28;20041;-80
2021/08/28 05:00:32;;;;;;;17.42;8.10;;;;;;;10.65;100.00;95410.97;5027338;28;20135;-80
2021/08/28 05:02:58;;;;;;;12.77;7.38;;;;;;;10.75;100.00;95423.28;5035259;28;20522;-80
2021/08/28 05:05:23;;;;;;;12.30;6.97;;;;;;;10.82;100.00;95415.88;5017232;28;20052;-80
2021/08/28 05:07:49;;;;;;;12.73;7.20;;;;;;;10.72;100.00;95431.72;5029258;28;20040;-80
2021/08/28 05:10:14;;;;;;;17.63;8.18;;;;;;;10.72;100.00;95426.47;5018753;28;20045;-80
2021/08/28 05:12:40;;;;;;;22.15;8.48;;;;;;;10.68;100.00;95426.19;5031603;28;20040;-81
2021/08/28 05:15:06;;;;;;;18.85;8.63;;;;;;;10.73;100.00;95428.00;5018564;28;20049;-81
2021/08/28 05:17:32;;;;;;;19.90;8.55;;;;;;;10.80;100.00;95427.72;5035135;28;20038;-80
2021/08/28 05:19:57;;;;;;;19.10;8.63;;;;;;;10.69;100.00;95421.75;5036543;28;20682;-80
2021/08/28 05:22:23;;;;;;;15.38;7.88;;;;;;;10.71;100.00;95424.88;5010839;28;20052;-80
2021/08/28 05:24:48;;;;;;;16.15;7.78;;;;;;;10.74;100.00;95429.59;5003642;28;20450;-80
2021/08/28 05:27:14;;;;;;;13.27;7.35;;;;;;;10.69;100.00;95421.75;5037162;28;20041;-80
2021/08/28 05:29:39;;;;;;;14.07;7.22;;;;;;;10.71;100.00;95430.16;5015622;28;20502;-80
2021/08/28 05:32:05;;;;;;;15.80;7.80;;;;;;;10.74;100.00;95434.84;5028036;28;20041;-80
2021/08/28 05:34:31;;;;;;;13.48;7.60;;;;;;;10.84;100.00;95434.78;5027851;28;20069;-80
2021/08/28 05:36:57;;;;;;;17.45;7.90;;;;;;;10.72;100.00;95431.72;5023488;28;20048;-80
2021/08/28 05:39:23;;;;;;;15.93;8.13;;;;;;;10.73;100.00;95435.91;5027026;28;20441;-80
2021/08/28 05:41:48;;;;;;;16.88;7.88;;;;;;;10.67;100.00;95429.88;5021727;28;20046;-80
2021/08/28 05:44:14;;;;;;;16.48;8.65;;;;;;;10.70;100.00;95433.81;5008966;28;20053;-81
2021/08/28 05:46:40;;;;;;;16.83;8.48;;;;;;;10.60;100.00;95423.34;5036253;28;20050;-81
2021/08/28 05:49:05;;;;;;;20.00;8.75;;;;;;;10.56;100.00;95423.13;5017565;28;20542;-80
2021/08/28 05:51:31;;;;;;;18.73;8.93;;;;;;;10.58;100.00;95437.56;5030183;28;20041;-80
2021/08/28 05:53:57;;;;;;;20.00;9.18;;;;;;;10.65;100.00;95436.50;5014787;28;20042;-79
2021/08/28 05:56:22;;;;;;;19.27;9.65;;;;;;;10.66;100.00;95433.59;5036571;28;20045;-79
2021/08/28 05:58:48;;;;;;;18.35;9.10;;;;;;;10.58;100.00;95432.28;5020652;28;20091;-78
2021/08/28 06:01:13;;;;;;;15.25;8.07;;;;;;;10.58;100.00;95442.06;5034599;28;20103;-78
2021/08/28 06:03:39;;;;;;;15.57;8.20;;;;;;;10.56;100.00;95439.69;5037607;28;20084;-78
2021/08/28 06:06:04;;;;;;;19.75;8.98;;;;;;;10.53;100.00;95440.22;5033818;28;20045;-79
2021/08/28 06:08:30;;;;;;;21.92;9.55;;;;;;;10.67;100.00;95434.38;5016579;28;20127;-80
2021/08/28 06:10:55;;;;;;;18.83;8.77;;;;;;;10.72;100.00;95437.75;5027745;28;20041;-79
2021/08/28 06:13:21;;;;;;;16.27;8.82;;;;;;;10.73;100.00;95433.28;5030553;28;20041;-80
2021/08/28 06:15:46;;;;;;;20.52;9.55;;;;;;;10.70;100.00;95428.56;5018782;28;20080;-80
2021/08/28 06:18:12;;;;;;;20.25;9.30;;;;;;;10.72;100.00;95432.50;5025222;28;20049;-80
2021/08/28 06:20:37;;;;;;;18.95;9.45;;;;;;;10.89;100.00;95426.88;5012392;28;21021;-80
2021/08/28 06:23:03;;;;;;;15.65;8.40;;;;;;;10.81;100.00;95430.06;5020141;28;20049;-80
2021/08/28 06:25:28;;;;;;;16.67;8.85;;;;;;;10.86;100.00;95427.44;5040779;28;20037;-80
2021/08/28 06:27:54;;;;;;;13.48;7.93;;;;;;;10.69;100.00;95424.38;5014444;28;20120;-79
2021/08/28 06:30:20;;;;;;;13.75;7.43;;;;;;;10.83;100.00;95427.97;5013569;28;20636;-80
2021/08/28 06:32:45;;;;;;;14.88;6.97;;;;;;;10.97;100.00;95428.13;5030907;28;20116;-80
2021/08/28 06:35:11;;;;;;;12.23;6.90;;;;;;;10.99;100.00;95435.75;5015287;28;20051;-80
2021/08/28 06:37:36;;;;;;;12.30;6.32;;;;;;;11.03;100.00;95432.34;5002347;28;20041;-80
2021/08/28 06:40:02;;;;;;;10.18;5.40;;;;;;;11.01;100.00;95438.94;5028095;28;20391;-80
2021/08/28 06:42:28;;;;;;;10.10;5.20;;;;;;;11.06;100.00;95438.88;5014956;28;20049;-80
2021/08/28 06:44:53;;;;;;;16.02;6.30;;;;;;;11.07;100.00;95438.59;5031661;28;20046;-81
2021/08/28 06:47:18;;;;;;;8.27;4.82;;;;;;;11.05;100.00;95437.31;5014497;28;20042;-80
2021/08/28 06:49:44;;;;;;;6.43;4.28;;;;;;;11.01;100.00;95433.66;5001070;28;20041;-80
2021/08/28 06:52:09;;;;;;;7.90;4.60;;;;;;;11.09;100.00;95446.22;5008330;28;20046;-80
2021/08/28 06:54:35;;;;;;;6.78;4.30;;;;;;;11.10;100.00;95442.53;5012573;28;20050;-79
2021/08/28 06:57:01;;;;;;;5.88;3.80;;;;;;;11.17;100.00;95440.38;4994426;28;20061;-80
2021/08/28 06:59:26;;;;;;;6.30;3.92;;;;;;;11.31;100.00;95437.91;5027473;28;20049;-80
2021/08/28 07:01:52;;;;;;;7.20;4.35;;;;;;;11.33;100.00;95440.28;5024910;28;20045;-79
2021/08/28 07:04:17;;;;;;;7.47;4.53;;;;;;;11.31;100.00;95437.16;5014475;28;20484;-79
2021/08/28 07:06:43;;;;;;;7.25;4.50;;;;;;;11.21;100.00;95454.59;5032210;28;20041;-80
2021/08/28 07:09:08;;;;;;;6.22;4.00;;;;;;;11.43;100.00;95445.47;5026980;28;20068;-81
2021/08/28 07:11:34;;;;;;;7.13;4.40;;;;;;;11.32;100.00;95446.59;5005830;28;20041;-80
2021/08/28 07:13:59;;;;;;;8.05;3.85;;;;;;;11.35;100.00;95446.03;5030725;28;20052;-80
2021/08/28 07:16:25;;;;;;;5.82;3.60;;;;;;;11.39;100.00;95454.97;5027170;28;20049;-80
2021/08/28 07:18:51;;;;;;;8.65;3.88;;;;;;;11.50;100.00;95448.56;5011517;28;20046;-80
2021/08/28 07:21:18;;;;;;;6.53;3.83;;;;;;;11.51;100.00;95452.78;5031523;28;20049;-79
2021/08/28 07:23:44;;;;;;;5.80;3.85;;;;;;;11.42;100.00;95449.16;5019864;28;20045;-80
2021/08/28 07:26:10;;;;;;;5.15;3.50;;;;;;;11.54;100.00;95452.22;5014423;28;20049;-80
2021/08/28 07:28:35;;;;;;;5.60;3.85;;;;;;;11.24;100.00;95448.75;5014123;28;20041;-79
2021/08/28 07:31:02;;;;;;;6.75;3.75;;;;;;;11.29;100.00;95445.28;5008339;28;20049;-80
2021/08/28 07:33:29;;;;;;;7.75;3.70;;;;;;;11.44;100.00;95442.56;5030465;28;20045;-79
2021/08/28 07:35:54;;;;;;;7.82;4.10;;;;;;;11.46;100.00;95434.38;5012333;28;20180;-80
2021/08/28 07:38:20;;;;;;;6.22;3.45;;;;;;;11.36;100.00;95440.50;5013450;28;20627;-80
2021/08/28 07:40:45;;;;;;;6.55;3.70;;;;;;;11.53;100.00;95445.38;5022089;28;20037;-79
2021/08/28 07:43:11;;;;;;;8.52;4.18;;;;;;;11.59;100.00;95433.75;5012687;28;20100;-79
2021/08/28 07:45:37;;;;;;;7.03;3.67;;;;;;;11.59;100.00;95443.47;5014481;28;20057;-80
2021/08/28 07:48:02;;;;;;;7.20;4.10;;;;;;;11.72;100.00;95447.31;5027034;28;20190;-78
2021/08/28 07:50:28;;;;;;;5.45;3.67;;;;;;;11.60;100.00;95445.84;5009987;28;20041;-81
2021/08/28 07:52:53;;;;;;;6.72;3.65;;;;;;;11.60;100.00;95445.84;5008517;28;20486;-78
2021/08/28 07:55:19;;;;;;;7.05;4.20;;;;;;;11.46;100.00;95450.19;5029799;28;20045;-77
2021/08/28 07:57:44;;;;;;;6.03;4.13;;;;;;;11.61;100.00;95447.41;5010995;28;20116;-77
2021/08/28 08:00:11;;;;;;;7.35;3.38;;;;;;;11.65;100.00;95452.13;5025547;28;20041;-77
2021/08/28 08:02:37;;;;;;;6.90;3.53;;;;;;;11.77;100.00;95444.66;5024506;28;20541;-81
2021/08/28 08:05:03;;;;;;;6.88;4.20;;;;;;;11.89;99.93;95452.97;5007537;28;20120;-77
2021/08/28 08:07:29;;;;;;;6.32;3.95;;;;;;;11.72;100.00;95458.69;5007785;28;20468;-80
2021/08/28 08:09:55;;;;;;;5.80;3.97;;;;;;;11.72;100.00;95457.88;5010019;28;20128;-77
2021/08/28 08:12:21;;;;;;;7.55;4.75;;;;;;;11.73;100.00;95459.44;5026144;28;20132;-77
2021/08/28 08:14:46;;;;;;;7.43;4.30;;;;;;;12.01;100.00;95454.47;5028189;28;20109;-76
2021/08/28 08:17:12;;;;;;;10.40;5.15;;;;;;;12.26;100.00;95461.34;5028577;28;20100;-77
2021/08/28 08:19:38;;;;;;;8.07;4.93;;;;;;;12.43;100.00;95450.34;5022835;28;20450;-78
2021/08/28 08:22:03;;;;;;;8.38;4.72;;;;;;;12.46;97.02;95455.03;5007382;28;20069;-76
2021/08/28 08:24:29;;;;;;;6.22;4.13;;;;;;;12.07;95.94;95453.38;5025521;28;20037;-77
2021/08/28 08:26:54;;;;;;;6.60;4.30;;;;;;;12.11;96.97;95449.09;5026405;28;20049;-79
2021/08/28 08:29:20;;;;;;;6.40;4.45;;;;;;;12.10;96.78;95458.09;5026320;28;20096;-78
2021/08/28 08:31:45;;;;;;;13.95;4.28;;;;;;;12.06;98.13;95443.88;5017440;28;20034;-79
2021/08/28 08:34:11;;;;;;;6.72;4.10;;;;;;;12.05;99.67;95450.22;5023368;28;20861;-79
2021/08/28 08:36:36;;;;;;;7.50;4.80;;;;;;;12.07;100.00;95453.38;5006988;28;20038;-81
2021/08/28 08:39:03;;;;;;;8.13;4.75;;;;;;;12.07;100.00;95451.50;5019612;28;20072;-81
2021/08/28 08:41:29;;;;;;;8.23;4.40;;;;;;;11.86;96.79;95442.97;4999270;28;20116;-80
2021/08/28 08:43:56;;;;;;;6.68;4.05;;;;;;;11.94;99.85;95444.25;5009235;28;20071;-80
2021/08/28 08:46:23;;;;;;;7.03;3.90;;;;;;;11.93;97.89;95448.72;5021950;28;20101;-82
2021/08/28 08:48:50;;;;;;;6.00;3.70;;;;;;;11.94;97.23;95455.59;4991370;28;20050;-80
2021/08/28 08:51:20;;;;;;;6.82;3.63;;;;;;;12.05;95.84;95455.47;5009509;28;20052;-79
2021/08/28 08:53:47;;;;;;;5.28;3.70;;;;;;;11.98;97.43;95452.38;5006292;28;20046;-80
2021/08/28 08:56:14;;;;;;;5.80;3.72;;;;;;;11.96;97.43;95458.72;5010217;28;20578;-81
2021/08/28 08:58:40;;;;;;;5.60;3.70;;;;;;;11.87;100.00;95457.75;5010322;28;20064;-78
2021/08/28 09:01:06;;;;;;;7.90;4.90;;;;;;;11.90;99.20;95459.81;5009075;28;20353;-80
2021/08/28 09:03:33;;;;;;;6.18;4.38;;;;;;;12.06;100.00;95451.78;5010082;28;20499;-79
2021/08/28 09:05:59;;;;;;;7.47;4.88;;;;;;;12.24;100.00;95453.72;5026177;28;20036;-78
2021/08/28 09:08:25;;;;;;;8.23;4.80;;;;;;;12.49;98.51;95449.19;5023694;28;20545;-77
2021/08/28 09:10:50;;;;;;;7.30;4.28;;;;;;;12.71;94.90;95461.06;5021069;28;20053;-82
2021/08/28 09:13:19;;;;;;;7.00;4.15;;;;;;;12.83;96.00;95464.09;5026466;28;20979;-78
2021/08/28 09:15:47;;;;;;;7.30;4.43;;;;;;;12.63;96.04;95450.06;5027352;28;20052;-76
2021/08/28 09:18:13;;;;;;;6.43;4.45;;;;;;;12.68;96.43;95451.09;5005224;28;20033;-79
2021/08/28 09:20:39;;;;;;;6.85;4.45;;;;;;;12.49;93.01;95451.84;5018872;28;20143;-76
2021/08/28 09:23:11;;;;;;;6.78;5.03;;;;;;;12.51;97.90;95451.56;5001018;28;20045;-76
2021/08/28 09:25:38;;;;;;;6.85;4.35;;;;;;;12.63;97.78;95455.34;5026206;28;20060;-76
2021/08/28 09:28:05;;;;;;;7.75;4.97;;;;;;;12.71;96.96;95455.78;5002980;28;20031;-76
2021/08/28 09:30:39;;;;;;;6.55;4.72;;;;;;;12.61;97.68;95456.69;5019787;28;20041;-77
2021/08/28 09:33:09;;;;;;;6.40;4.85;;;;;;;12.88;96.88;95463.25;5009433;28;20061;-76
2021/08/28 09:35:41;;;;;;;6.70;4.10;;;;;;;12.79;94.70;95463.88;5010182;28;20785;-76
2021/08/28 09:38:12;;;;;;;7.10;3.80;;;;;;;12.76;94.46;95463.66;5009463;28;20148;-77
2021/08/28 09:40:44;;;;;;;5.03;3.55;;;;;;;12.70;93.92;95470.06;5022877;28;20049;-76
2021/08/28 09:43:12;;;;;;;5.72;2.97;;;;;;;12.53;93.21;95458.13;5027059;28;20461;-79
2021/08/28 09:45:38;;;;;;;5.90;3.63;;;;;;;12.63;93.71;95460.63;5009711;28;20771;-77
2021/08/28 09:48:08;;;;;;;5.10;3.53;;;;;;;12.74;95.64;95458.66;5028565;28;20045;-78
2021/08/28 09:50:45;;;;;;;5.28;3.63;;;;;;;12.83;95.75;95469.38;5028707;28;20037;-78
2021/08/28 09:53:17;;;;;;;7.63;3.75;;;;;;;12.64;95.28;95466.69;5031484;28;20546;-81
2021/08/28 09:55:43;;;;;;;6.15;3.38;;;;;;;12.71;94.67;95471.63;5013419;28;20067;-78
2021/08/28 09:58:10;;;;;;;4.95;3.35;;;;;;;12.96;92.30;95462.59;5032645;28;20096;-78
2021/08/28 10:00:42;;;;;;;5.10;3.17;;;;;;;13.06;92.27;95467.75;5029850;28;20052;-77
2021/08/28 10:03:07;;;;;;;3.85;3.05;;;;;;;13.07;93.44;95463.22;5022074;28;20088;-78
2021/08/28 10:05:36;;;;;;;6.47;3.10;;;;;;;13.50;88.57;95461.31;5030106;28;20033;-77
2021/08/28 10:08:05;;;;;;;5.82;3.10;;;;;;;13.34;88.78;95458.09;5030133;28;20510;-78
2021/08/28 10:10:33;;;;;;;4.03;3.03;;;;;;;13.45;89.91;95457.97;5028511;28;20546;-77
2021/08/28 10:13:00;;;;;;;3.92;2.60;;;;;;;13.57;87.48;95466.22;5014571;28;20050;-77
2021/08/28 10:15:27;;;;;;;3.45;2.35;;;;;;;13.62;85.73;95450.28;5012433;28;20052;-78
2021/08/28 10:17:54;;;;;;;5.43;2.95;;;;;;;13.94;89.44;95453.19;5013797;28;20045;-77
2021/08/28 10:20:20;;;;;;;4.95;2.60;;;;;;;14.12;86.21;95454.19;5015225;28;20049;-77
2021/08/28 10:22:52;;;;;;;4.53;2.30;;;;;;;14.52;81.33;95451.81;5011790;28;20104;-77
2021/08/28 10:25:20;;;;;;;4.03;2.50;;;;;;;14.08;88.29;95453.19;5012173;28;20053;-78
2021/08/28 10:27:48;;;;;;;5.03;2.67;;;;;;;14.01;85.69;95459.66;5013098;28;20050;-76
2021/08/28 10:30:15;;;;;;;3.35;2.30;;;;;;;14.28;81.99;95452.81;5024334;28;20722;-79
2021/08/28 10:32:41;;;;;;;4.95;2.72;;;;;;;14.70;84.46;95448.31;5028511;28;20117;-77
2021/08/28 10:35:08;;;;;;;4.43;2.53;;;;;;;15.31;78.45;95440.09;5015605;28;20055;-78
2021/08/28 10:37:34;;;;;;;2.97;2.10;;;;;;;15.48;79.15;95430.69;5032486;28;20045;-81
2021/08/28 10:40:00;;;;;;;6.35;2.47;;;;;;;15.65;75.96;95438.75;5027899;28;20120;-77
2021/08/28 10:42:31;;;;;;;5.07;2.50;;;;;;;15.43;80.34;95431.63;5027834;28;20042;-77
2021/08/28 10:44:59;;;;;;;5.75;2.40;;;;;;;15.93;73.11;95433.31;5026640;28;20049;-77
2021/08/28 10:47:30;;;;;;;3.55;2.20;;;;;;;15.65;74.59;95438.75;5026952;28;20042;-77
2021/08/28 10:50:05;;;;;;;4.53;2.08;;;;;;;14.98;77.60;95440.28;5028685;28;20511;-78
2021/08/28 10:52:35;;;;;;;2.85;2.00;;;;;;;14.73;76.71;95439.75;5010070;28;20175;-79
2021/08/28 10:55:13;;;;;;;3.60;2.15;;;;;;;14.54;77.87;95439.09;5011153;28;20049;-78
2021/08/28 10:57:41;;;;;;;7.38;2.60;;;;;;;14.46;76.74;95442.44;5032639;28;20050;-78
2021/08/28 11:00:16;;;;;;;13.27;2.45;;;;;;;14.45;83.66;95446.16;5027364;28;20107;-78
2021/08/28 11:02:59;;;;;;;6.22;1.92;;;;;;;14.35;82.71;95442.63;5009299;28;20052;-80
2021/08/28 11:05:27;;;;;;;3.65;1.80;;;;;;;14.27;79.50;95439.88;5031613;28;20042;-79
2021/08/28 11:08:17;;;;;;;2.58;1.90;;;;;;;14.43;78.20;95448.31;5028030;28;20053;-80
2021/08/28 11:10:43;;;;;;;3.17;1.73;;;;;;;14.26;80.84;95439.09;4998273;28;20123;-79
2021/08/28 11:13:09;;;;;;;4.40;1.90;;;;;;;14.50;81.09;95448.72;5008044;28;20541;-79
2021/08/28 11:15:34;;;;;;;2.28;1.80;;;;;;;14.48;78.99;95446.34;5025807;28;20046;-81
2021/08/28 11:18:01;;;;;;;2.80;1.70;;;;;;;14.64;78.97;95444.22;5025854;28;20526;-79
2021/08/28 11:20:34;;;;;;;2.97;1.83;;;;;;;14.93;78.86;95444.91;5028152;28;20497;-79
2021/08/28 11:23:10;;;;;;;2.50;1.58;;;;;;;14.92;76.08;95446.03;5002381;28;20046;-79
2021/08/28 11:25:38;;;;;;;4.75;1.75;;;;;;;14.73;77.85;95442.41;5016635;28;20038;-79